• Join FlightAware (Why Join?)
  • Login
  • US Flag 
05:00AM EDT


 

Airport Tracker/Info


-or-


 

Live Flight TrackerFlight Track Log ✈ TAM3375 ✈ 21-May-2013 ✈ SBVT / VIX - SBGR / GRU

Flight Track Log - Related Links

Times and Time Zones

All times are in EDT time to prevent confusion due to time zone crossing. See the TAM3375 flight status page for this flight to view local times or setup timezone preferences in your user account.

Time Position Orientation Groundspeed Altitude Reporting Facility
EDT Latitude Longitude Course Direction KTS MPH feet Rate Location/Type
06:10PM -21.5565 -42.7293 240° Southwest  Level Estimated
06:11PM -21.6022 -42.8173 241° Southwest  Level Estimated
06:12PM -21.6479 -42.9054 241° Southwest  Level Estimated
06:13PM -21.7029 -43.0118 241° Southwest  Level Estimated
06:14PM -21.7579 -43.1183 241° Southwest  Level Estimated
06:15PM -21.8128 -43.2249 241° Southwest  Level Estimated
06:16PM -21.8677 -43.3315 241° Southwest  Level Estimated
06:17PM -21.9225 -43.4382 241° Southwest  Level Estimated
06:18PM -21.9772 -43.5450 241° Southwest  Level Estimated
06:19PM -22.0319 -43.6519 241° Southwest  Level Estimated
06:20PM -22.0864 -43.7589 241° Southwest  Level Estimated
06:21PM -22.1409 -43.8659 241° Southwest  Level Estimated
06:22PM -22.1954 -43.9731 241° Southwest  Level Estimated
06:23PM -22.2498 -44.0803 241° Southwest  Level Estimated
06:24PM -22.3041 -44.1876 241° Southwest  Level Estimated
06:25PM -22.3583 -44.2950 241° Southwest  Level Estimated
06:26PM -22.4125 -44.4024 241° Southwest  Level Estimated
06:27PM -22.4665 -44.5100 241° Southwest  Level Estimated
06:28PM -22.5206 -44.6176 241° Southwest  Level Estimated
06:29PM -22.5745 -44.7253 242° Southwest  Level Estimated
06:30PM -22.6284 -44.8331 242° Southwest  Level Estimated
06:31PM -22.6822 -44.9410 242° Southwest  Level Estimated
06:32PM -22.7359 -45.0490 242° Southwest  Level Estimated
06:33PM -22.7896 -45.1571 242° Southwest  Level Estimated
06:34PM -22.8431 -45.2652 242° Southwest  Level Estimated
06:35PM -22.8967 -45.3734 242° Southwest  Level Estimated
06:36PM -22.9501 -45.4817 242° Southwest  Level Estimated
06:37PM -23.0035 -45.5901 242° Southwest  Level Estimated
06:38PM -23.0567 -45.6986 242° Southwest  Level Estimated
06:39PM -23.1100 -45.8072 242° Southwest  Level Estimated
06:40PM -23.1631 -45.9158 242° Southwest  Level Estimated
06:41PM -23.2162 -46.0246 242° Southwest  Level Estimated
06:42PM -23.2692 -46.1334 242° Southwest  Level Estimated
06:43PM -23.3221 -46.2423 242° Southwest  Level Estimated
06:44PM -23.3749 -46.3513 242° Southwest  Level Estimated
06:45PM -23.4277 -46.4604 242° Southwest  Level Estimated
06:46PM -23.4321 -46.4695 242° Southwest  Level Estimated
06:47PM -23.4321 -46.4695 350° North  Level Estimated
06:48PM -23.4321 -46.4695 350° North  Level Estimated
06:49PM -23.4321 -46.4695 350° North  Level Estimated
06:50PM -23.4321 -46.4695 350° North  Level Estimated
06:51PM -23.4321 -46.4695 350° North  Level Estimated
06:52PM -23.4321 -46.4695 350° North  Level Estimated
06:53PM -23.4321 -46.4695 350° North  Level Estimated
06:54PM -23.4321 -46.4695 350° North  Level Estimated
06:55PM -23.4321 -46.4695 350° North  Level Estimated
06:56PM -23.4321 -46.4695 350° North  Level Estimated